Islip, New York
Current Conditions -  °F | °C
As of 9:56 PM on Wednesday 22 Oct 2014 (Local Time) from KISP Reporting Station
Heavy Rain Heavy Rain  
Wind Chill: 51°   Ceiling: 1400
Heat Index: 51°   Visibility: 4mi
Dew Point: 48°   Wind: 22mph
Humidity: 89%   Direction: 10°N
Pressure: 29.68"   Gusts: 35mph
Location:  40.73°N, 73.21°W
Report Text: KISP 230156Z 01019G30KT 4SM +RA BR FEW008 BKN014 OVC022 11/09 A2968 RMK AO2 PK WND 02033/0112 TSB12E36 SLP048 P0025 T01060089
Loading
Personal Weather Stations






























Interactive Weather Map
Tropical Storm Tracking
New forecast layout! Learn more

10-Day Weather Forecast

Advertisements
Track Severe Weather on mobile